sensor_id;sensor_type;location;lat;lon;timestamp;pressure;altitude;pressure_sealevel;temperature;humidity
28131;BME280;15418;42.634;23.374;2022-09-13T00:00:33;94112.00;;;13.85;100.00
28131;BME280;15418;42.634;23.374;2022-09-13T00:02:59;94159.78;;;14.19;100.00
28131;BME280;15418;42.634;23.374;2022-09-13T00:05:25;94113.00;;;13.89;100.00
28131;BME280;15418;42.634;23.374;2022-09-13T00:07:50;94153.31;;;14.15;100.00
28131;BME280;15418;42.634;23.374;2022-09-13T00:10:16;94145.25;;;14.10;100.00
28131;BME280;15418;42.634;23.374;2022-09-13T00:12:41;94142.84;;;14.08;100.00
28131;BME280;15418;42.634;23.374;2022-09-13T00:15:08;94147.88;;;14.15;100.00
28131;BME280;15418;42.634;23.374;2022-09-13T00:17:33;94101.63;;;13.87;100.00
28131;BME280;15418;42.634;23.374;2022-09-13T00:19:59;94076.91;;;13.70;100.00
28131;BME280;15418;42.634;23.374;2022-09-13T00:22:25;94135.16;;;14.10;100.00
28131;BME280;15418;42.634;23.374;2022-09-13T00:24:51;94099.50;;;13.84;100.00
28131;BME280;15418;42.634;23.374;2022-09-13T00:27:16;94139.41;;;14.17;100.00
28131;BME280;15418;42.634;23.374;2022-09-13T00:29:42;94063.22;;;13.61;100.00
28131;BME280;15418;42.634;23.374;2022-09-13T00:32:07;94105.75;;;13.85;100.00
28131;BME280;15418;42.634;23.374;2022-09-13T00:34:33;94098.28;;;13.90;100.00
28131;BME280;15418;42.634;23.374;2022-09-13T00:36:58;94113.97;;;14.07;100.00
28131;BME280;15418;42.634;23.374;2022-09-13T00:39:24;94109.13;;;14.04;100.00
28131;BME280;15418;42.634;23.374;2022-09-13T00:41:49;94117.88;;;14.29;100.00
28131;BME280;15418;42.634;23.374;2022-09-13T00:44:53;94124.63;;;14.31;100.00
28131;BME280;15418;42.634;23.374;2022-09-13T00:50:20;94126.88;;;14.52;100.00
28131;BME280;15418;42.634;23.374;2022-09-13T00:52:54;94117.09;;;14.51;100.00
28131;BME280;15418;42.634;23.374;2022-09-13T00:55:24;94118.16;;;14.64;100.00
28131;BME280;15418;42.634;23.374;2022-09-13T00:57:53;94116.84;;;14.61;100.00
28131;BME280;15418;42.634;23.374;2022-09-13T01:00:20;94086.59;;;14.49;100.00
28131;BME280;15418;42.634;23.374;2022-09-13T01:03:12;94070.25;;;14.49;100.00
28131;BME280;15418;42.634;23.374;2022-09-13T01:05:43;94120.81;;;14.78;100.00
28131;BME280;15418;42.634;23.374;2022-09-13T01:08:11;94110.88;;;14.73;100.00
28131;BME280;15418;42.634;23.374;2022-09-13T01:10:41;94085.94;;;14.66;100.00
28131;BME280;15418;42.634;23.374;2022-09-13T01:13:15;94114.56;;;14.77;100.00
28131;BME280;15418;42.634;23.374;2022-09-13T01:15:43;94122.81;;;14.86;100.00
28131;BME280;15418;42.634;23.374;2022-09-13T01:18:10;94107.94;;;14.92;100.00
28131;BME280;15418;42.634;23.374;2022-09-13T01:20:48;94095.66;;;14.81;100.00
28131;BME280;15418;42.634;23.374;2022-09-13T01:31:34;94113.88;;;14.94;100.00
28131;BME280;15418;42.634;23.374;2022-09-13T01:39:32;94088.28;;;14.82;100.00
28131;BME280;15418;42.634;23.374;2022-09-13T01:45:23;94079.16;;;14.86;100.00
28131;BME280;15418;42.634;23.374;2022-09-13T01:48:15;94061.69;;;14.87;100.00
28131;BME280;15418;42.634;23.374;2022-09-13T01:50:58;94077.72;;;14.89;100.00
28131;BME280;15418;42.634;23.374;2022-09-13T01:56:16;94076.72;;;14.76;100.00
28131;BME280;15418;42.634;23.374;2022-09-13T01:58:56;94097.66;;;14.89;100.00
28131;BME280;15418;42.634;23.374;2022-09-13T02:01:32;94081.28;;;14.67;100.00
28131;BME280;15418;42.634;23.374;2022-09-13T02:04:28;94096.09;;;14.74;100.00
28131;BME280;15418;42.634;23.374;2022-09-13T02:07:10;94094.31;;;14.70;100.00
28131;BME280;15418;42.634;23.374;2022-09-13T02:09:40;94093.31;;;14.66;100.00
28131;BME280;15418;42.634;23.374;2022-09-13T02:12:13;94096.78;;;14.57;100.00
28131;BME280;15418;42.634;23.374;2022-09-13T02:14:42;94094.97;;;14.53;100.00
28131;BME280;15418;42.634;23.374;2022-09-13T02:17:10;94096.69;;;14.48;100.00
28131;BME280;15418;42.634;23.374;2022-09-13T02:19:42;94067.47;;;14.26;100.00
28131;BME280;15418;42.634;23.374;2022-09-13T02:22:12;94072.13;;;14.48;100.00
28131;BME280;15418;42.634;23.374;2022-09-13T02:24:44;94079.53;;;14.48;100.00
28131;BME280;15418;42.634;23.374;2022-09-13T02:27:16;94046.69;;;14.30;100.00
28131;BME280;15418;42.634;23.374;2022-09-13T02:29:44;94068.50;;;14.30;100.00
28131;BME280;15418;42.634;23.374;2022-09-13T02:32:16;94090.31;;;14.30;100.00
28131;BME280;15418;42.634;23.374;2022-09-13T02:34:47;94062.41;;;14.11;100.00
28131;BME280;15418;42.634;23.374;2022-09-13T02:37:14;94103.66;;;14.18;100.00
28131;BME280;15418;42.634;23.374;2022-09-13T02:39:46;94100.50;;;14.25;100.00
28131;BME280;15418;42.634;23.374;2022-09-13T02:42:17;94094.38;;;14.19;100.00
28131;BME280;15418;42.634;23.374;2022-09-13T02:44:49;94089.28;;;14.04;100.00
28131;BME280;15418;42.634;23.374;2022-09-13T02:58:42;94105.03;;;13.93;100.00
28131;BME280;15418;42.634;23.374;2022-09-13T03:01:04;94052.13;;;13.57;100.00
28131;BME280;15418;42.634;23.374;2022-09-13T03:03:29;94112.13;;;13.80;100.00
28131;BME280;15418;42.634;23.374;2022-09-13T03:05:54;94045.88;;;13.29;100.00
28131;BME280;15418;42.634;23.374;2022-09-13T03:08:20;94101.72;;;13.68;100.00
28131;BME280;15418;42.634;23.374;2022-09-13T03:10:56;94105.16;;;13.74;100.00
28131;BME280;15418;42.634;23.374;2022-09-13T03:16:35;94108.78;;;13.69;100.00
28131;BME280;15418;42.634;23.374;2022-09-13T03:19:16;94109.38;;;13.66;100.00
28131;BME280;15418;42.634;23.374;2022-09-13T03:27:29;94101.34;;;13.61;100.00
28131;BME280;15418;42.634;23.374;2022-09-13T03:30:03;94101.53;;;13.64;100.00
28131;BME280;15418;42.634;23.374;2022-09-13T03:32:51;94105.56;;;13.81;100.00
28131;BME280;15418;42.634;23.374;2022-09-13T03:35:31;94107.56;;;13.75;100.00
28131;BME280;15418;42.634;23.374;2022-09-13T03:38:07;94109.00;;;13.73;100.00
28131;BME280;15418;42.634;23.374;2022-09-13T03:40:45;94097.31;;;13.58;100.00
28131;BME280;15418;42.634;23.374;2022-09-13T03:43:27;94110.00;;;13.63;100.00
28131;BME280;15418;42.634;23.374;2022-09-13T03:46:03;94100.44;;;13.51;100.00
28131;BME280;15418;42.634;23.374;2022-09-13T03:48:33;94102.34;;;13.51;100.00
28131;BME280;15418;42.634;23.374;2022-09-13T03:51:00;94111.13;;;13.48;100.00
28131;BME280;15418;42.634;23.374;2022-09-13T03:53:29;94119.38;;;13.57;100.00
28131;BME280;15418;42.634;23.374;2022-09-13T03:55:55;94118.28;;;13.58;100.00
28131;BME280;15418;42.634;23.374;2022-09-13T03:58:21;94109.69;;;13.64;100.00
28131;BME280;15418;42.634;23.374;2022-09-13T04:00:47;94075.69;;;13.34;100.00
28131;BME280;15418;42.634;23.374;2022-09-13T04:03:13;94104.16;;;13.56;100.00
28131;BME280;15418;42.634;23.374;2022-09-13T04:05:39;94118.69;;;13.65;100.00
28131;BME280;15418;42.634;23.374;2022-09-13T04:08:06;94110.59;;;13.60;100.00
28131;BME280;15418;42.634;23.374;2022-09-13T04:10:33;94112.41;;;13.64;100.00
28131;BME280;15418;42.634;23.374;2022-09-13T04:12:59;94089.25;;;13.53;100.00
28131;BME280;15418;42.634;23.374;2022-09-13T04:15:26;94095.69;;;13.57;100.00
28131;BME280;15418;42.634;23.374;2022-09-13T04:17:52;94111.31;;;13.65;100.00
28131;BME280;15418;42.634;23.374;2022-09-13T04:20:17;94079.16;;;13.54;100.00
28131;BME280;15418;42.634;23.374;2022-09-13T04:22:43;94097.91;;;13.69;100.00
28131;BME280;15418;42.634;23.374;2022-09-13T04:25:14;94114.84;;;13.80;100.00
28131;BME280;15418;42.634;23.374;2022-09-13T04:27:40;94081.28;;;13.57;100.00
28131;BME280;15418;42.634;23.374;2022-09-13T04:30:06;94117.69;;;13.75;100.00
28131;BME280;15418;42.634;23.374;2022-09-13T04:32:31;94077.84;;;13.51;100.00
28131;BME280;15418;42.634;23.374;2022-09-13T04:34:57;94092.78;;;13.67;100.00
28131;BME280;15418;42.634;23.374;2022-09-13T04:37:23;94087.22;;;13.73;100.00
28131;BME280;15418;42.634;23.374;2022-09-13T04:39:48;94098.50;;;13.80;100.00
28131;BME280;15418;42.634;23.374;2022-09-13T04:42:14;94113.13;;;13.84;100.00
28131;BME280;15418;42.634;23.374;2022-09-13T04:44:39;94118.34;;;13.94;100.00
28131;BME280;15418;42.634;23.374;2022-09-13T04:47:05;94124.88;;;14.07;100.00
28131;BME280;15418;42.634;23.374;2022-09-13T04:49:32;94113.00;;;14.03;100.00
28131;BME280;15418;42.634;23.374;2022-09-13T04:51:58;94104.91;;;13.98;100.00
28131;BME280;15418;42.634;23.374;2022-09-13T04:54:23;94127.19;;;14.14;100.00
28131;BME280;15418;42.634;23.374;2022-09-13T04:56:49;94112.25;;;14.11;100.00
28131;BME280;15418;42.634;23.374;2022-09-13T04:59:14;94129.88;;;14.28;100.00
28131;BME280;15418;42.634;23.374;2022-09-13T05:01:40;94134.91;;;14.35;100.00
28131;BME280;15418;42.634;23.374;2022-09-13T05:04:07;94140.97;;;14.31;100.00
28131;BME280;15418;42.634;23.374;2022-09-13T05:06:34;94125.88;;;14.25;100.00
28131;BME280;15418;42.634;23.374;2022-09-13T05:08:59;94139.25;;;14.36;100.00
28131;BME280;15418;42.634;23.374;2022-09-13T05:11:26;94141.47;;;14.34;100.00
28131;BME280;15418;42.634;23.374;2022-09-13T05:13:54;94115.38;;;14.19;100.00
28131;BME280;15418;42.634;23.374;2022-09-13T05:16:24;94132.06;;;14.40;100.00
28131;BME280;15418;42.634;23.374;2022-09-13T05:18:50;94135.47;;;14.45;100.00
28131;BME280;15418;42.634;23.374;2022-09-13T05:21:16;94131.47;;;14.43;100.00
28131;BME280;15418;42.634;23.374;2022-09-13T05:23:43;94139.25;;;14.58;100.00
28131;BME280;15418;42.634;23.374;2022-09-13T05:26:08;94132.31;;;14.66;100.00
28131;BME280;15418;42.634;23.374;2022-09-13T05:28:35;94134.47;;;14.78;100.00
28131;BME280;15418;42.634;23.374;2022-09-13T05:33:29;94118.72;;;14.98;100.00
28131;BME280;15418;42.634;23.374;2022-09-13T05:35:55;94132.38;;;15.29;100.00
28131;BME280;15418;42.634;23.374;2022-09-13T05:38:21;94122.28;;;15.38;100.00
28131;BME280;15418;42.634;23.374;2022-09-13T05:40:47;94127.50;;;15.49;100.00
28131;BME280;15418;42.634;23.374;2022-09-13T05:43:13;94128.63;;;15.56;100.00
28131;BME280;15418;42.634;23.374;2022-09-13T05:45:39;94087.47;;;15.44;100.00
28131;BME280;15418;42.634;23.374;2022-09-13T05:48:05;94065.44;;;15.40;100.00
28131;BME280;15418;42.634;23.374;2022-09-13T05:50:31;94105.56;;;15.80;100.00
28131;BME280;15418;42.634;23.374;2022-09-13T05:53:00;94103.38;;;15.82;100.00
28131;BME280;15418;42.634;23.374;2022-09-13T05:55:26;94119.44;;;15.92;100.00
28131;BME280;15418;42.634;23.374;2022-09-13T05:57:51;94071.66;;;15.72;100.00
28131;BME280;15418;42.634;23.374;2022-09-13T06:00:17;94106.97;;;16.09;100.00
28131;BME280;15418;42.634;23.374;2022-09-13T06:02:42;94119.16;;;16.03;100.00
28131;BME280;15418;42.634;23.374;2022-09-13T06:05:08;94122.84;;;15.98;100.00
28131;BME280;15418;42.634;23.374;2022-09-13T06:07:40;94108.56;;;15.61;100.00
28131;BME280;15418;42.634;23.374;2022-09-13T06:10:07;94135.84;;;15.92;100.00
28131;BME280;15418;42.634;23.374;2022-09-13T06:12:32;94131.56;;;15.69;100.00
28131;BME280;15418;42.634;23.374;2022-09-13T06:14:58;94140.63;;;15.78;100.00
28131;BME280;15418;42.634;23.374;2022-09-13T06:17:23;94123.03;;;15.62;100.00
28131;BME280;15418;42.634;23.374;2022-09-13T06:19:49;94136.41;;;15.72;100.00
28131;BME280;15418;42.634;23.374;2022-09-13T06:22:14;94136.97;;;15.51;100.00
28131;BME280;15418;42.634;23.374;2022-09-13T06:24:40;94142.16;;;15.62;100.00
28131;BME280;15418;42.634;23.374;2022-09-13T06:27:05;94124.78;;;15.57;100.00
28131;BME280;15418;42.634;23.374;2022-09-13T06:29:31;94129.16;;;15.67;100.00
28131;BME280;15418;42.634;23.374;2022-09-13T06:31:56;94133.38;;;15.73;100.00
28131;BME280;15418;42.634;23.374;2022-09-13T06:34:22;94123.38;;;15.69;100.00
28131;BME280;15418;42.634;23.374;2022-09-13T06:36:48;94148.63;;;15.74;100.00
28131;BME280;15418;42.634;23.374;2022-09-13T06:39:13;94151.94;;;15.85;100.00
28131;BME280;15418;42.634;23.374;2022-09-13T06:41:39;94144.84;;;15.84;100.00
28131;BME280;15418;42.634;23.374;2022-09-13T06:44:04;94160.31;;;15.98;100.00
28131;BME280;15418;42.634;23.374;2022-09-13T06:46:33;94160.44;;;16.68;100.00
28131;BME280;15418;42.634;23.374;2022-09-13T06:49:01;94136.50;;;17.39;100.00
28131;BME280;15418;42.634;23.374;2022-09-13T06:51:27;94147.84;;;18.14;100.00
28131;BME280;15418;42.634;23.374;2022-09-13T06:53:54;94142.75;;;19.43;98.20
28131;BME280;15418;42.634;23.374;2022-09-13T06:56:27;94167.91;;;20.53;89.06
28131;BME280;15418;42.634;23.374;2022-09-13T06:58:58;94151.75;;;20.52;86.63
28131;BME280;15418;42.634;23.374;2022-09-13T07:01:26;94147.38;;;21.16;83.87
28131;BME280;15418;42.634;23.374;2022-09-13T07:04:03;94141.91;;;21.32;82.23
28131;BME280;15418;42.634;23.374;2022-09-13T07:06:31;94116.84;;;21.37;80.73
28131;BME280;15418;42.634;23.374;2022-09-13T07:08:58;94163.47;;;22.71;74.03
28131;BME280;15418;42.634;23.374;2022-09-13T07:11:28;94113.56;;;22.28;73.35
28131;BME280;15418;42.634;23.374;2022-09-13T07:13:55;94169.06;;;22.39;70.05
28131;BME280;15418;42.634;23.374;2022-09-13T07:16:23;94119.41;;;20.73;78.62
28131;BME280;15418;42.634;23.374;2022-09-13T07:18:54;94144.91;;;21.72;80.66
28131;BME280;15418;42.634;23.374;2022-09-13T07:21:21;94164.28;;;22.55;75.43
28131;BME280;15418;42.634;23.374;2022-09-13T07:23:48;94131.22;;;22.59;77.59
28131;BME280;15418;42.634;23.374;2022-09-13T07:26:14;94165.28;;;22.63;74.00
28131;BME280;15418;42.634;23.374;2022-09-13T07:28:42;94170.88;;;22.67;71.76
28131;BME280;15418;42.634;23.374;2022-09-13T07:31:19;94162.47;;;22.43;68.51
28131;BME280;15418;42.634;23.374;2022-09-13T07:33:46;94172.22;;;22.57;69.94
28131;BME280;15418;42.634;23.374;2022-09-13T07:36:12;94148.00;;;22.50;65.68
28131;BME280;15418;42.634;23.374;2022-09-13T07:38:42;94179.44;;;21.81;70.91
28131;BME280;15418;42.634;23.374;2022-09-13T07:41:12;94175.88;;;21.81;70.33
28131;BME280;15418;42.634;23.374;2022-09-13T07:43:38;94149.25;;;21.28;72.72
28131;BME280;15418;42.634;23.374;2022-09-13T07:46:08;94178.81;;;21.44;74.00
28131;BME280;15418;42.634;23.374;2022-09-13T07:48:37;94174.16;;;21.60;70.21
28131;BME280;15418;42.634;23.374;2022-09-13T07:51:08;94176.25;;;21.95;68.51
28131;BME280;15418;42.634;23.374;2022-09-13T07:53:35;94183.91;;;22.18;63.88
28131;BME280;15418;42.634;23.374;2022-09-13T07:56:07;94177.56;;;21.69;61.45
28131;BME280;15418;42.634;23.374;2022-09-13T07:58:34;94179.50;;;20.59;69.65
28131;BME280;15418;42.634;23.374;2022-09-13T08:01:12;94187.97;;;19.80;75.58
28131;BME280;15418;42.634;23.374;2022-09-13T08:03:38;94176.38;;;19.28;80.12
28131;BME280;15418;42.634;23.374;2022-09-13T08:06:05;94147.78;;;19.29;82.66
28131;BME280;15418;42.634;23.374;2022-09-13T08:08:32;94192.13;;;19.52;83.35
28131;BME280;15418;42.634;23.374;2022-09-13T08:10:58;94166.91;;;20.46;78.83
28131;BME280;15418;42.634;23.374;2022-09-13T08:13:24;94162.31;;;20.75;72.96
28131;BME280;15418;42.634;23.374;2022-09-13T08:15:50;94176.56;;;21.62;66.38
28131;BME280;15418;42.634;23.374;2022-09-13T08:18:17;94166.81;;;20.95;64.77
28131;BME280;15418;42.634;23.374;2022-09-13T08:20:42;94180.91;;;20.53;69.89
28131;BME280;15418;42.634;23.374;2022-09-13T08:23:09;94163.13;;;20.50;70.67
28131;BME280;15418;42.634;23.374;2022-09-13T08:25:35;94164.34;;;21.18;64.17
28131;BME280;15418;42.634;23.374;2022-09-13T08:28:11;94128.13;;;21.77;59.00
28131;BME280;15418;42.634;23.374;2022-09-13T08:30:38;94176.22;;;23.14;53.77
28131;BME280;15418;42.634;23.374;2022-09-13T08:33:05;94176.50;;;24.11;50.33
28131;BME280;15418;42.634;23.374;2022-09-13T08:35:31;94161.03;;;23.05;51.36
28131;BME280;15418;42.634;23.374;2022-09-13T08:37:58;94157.34;;;23.79;47.87
28131;BME280;15418;42.634;23.374;2022-09-13T08:40:27;94176.09;;;23.89;47.35
28131;BME280;15418;42.634;23.374;2022-09-13T08:43:00;94174.84;;;23.64;45.72
28131;BME280;15418;42.634;23.374;2022-09-13T08:45:28;94158.22;;;24.06;44.53
28131;BME280;15418;42.634;23.374;2022-09-13T08:48:01;94175.03;;;23.94;43.27
28131;BME280;15418;42.634;23.374;2022-09-13T08:50:37;94164.28;;;22.91;45.66
28131;BME280;15418;42.634;23.374;2022-09-13T08:53:11;94173.84;;;22.10;47.03
28131;BME280;15418;42.634;23.374;2022-09-13T08:56:01;94171.53;;;22.12;48.69
28131;BME280;15418;42.634;23.374;2022-09-13T08:58:51;94157.69;;;23.15;45.17
28131;BME280;15418;42.634;23.374;2022-09-13T09:01:41;94121.69;;;23.74;41.97
28131;BME280;15418;42.634;23.374;2022-09-13T09:04:29;94164.75;;;23.75;39.42
28131;BME280;15418;42.634;23.374;2022-09-13T09:07:05;94162.50;;;23.38;41.50
28131;BME280;15418;42.634;23.374;2022-09-13T09:09:42;94137.03;;;22.89;43.92
28131;BME280;15418;42.634;23.374;2022-09-13T09:13:05;94142.50;;;22.02;47.70
28131;BME280;15418;42.634;23.374;2022-09-13T09:15:26;94167.59;;;22.61;47.03
28131;BME280;15418;42.634;23.374;2022-09-13T09:18:01;94163.75;;;22.65;46.27
28131;BME280;15418;42.634;23.374;2022-09-13T09:20:31;94177.16;;;22.83;44.88
28131;BME280;15418;42.634;23.374;2022-09-13T09:23:22;94155.13;;;22.35;45.47
28131;BME280;15418;42.634;23.374;2022-09-13T09:25:47;94173.94;;;21.97;45.58
28131;BME280;15418;42.634;23.374;2022-09-13T09:28:16;94164.31;;;22.39;44.18
28131;BME280;15418;42.634;23.374;2022-09-13T09:37:12;94160.19;;;22.49;44.41
28131;BME280;15418;42.634;23.374;2022-09-13T09:39:36;94158.78;;;22.39;49.96
28131;BME280;15418;42.634;23.374;2022-09-13T09:42:08;94137.72;;;22.86;45.37
28131;BME280;15418;42.634;23.374;2022-09-13T09:44:38;94148.22;;;22.96;44.60
28131;BME280;15418;42.634;23.374;2022-09-13T09:47:21;94149.50;;;24.04;43.45
28131;BME280;15418;42.634;23.374;2022-09-13T09:49:54;94130.16;;;23.85;41.12
28131;BME280;15418;42.634;23.374;2022-09-13T09:55:23;94138.91;;;23.44;42.06
28131;BME280;15418;42.634;23.374;2022-09-13T10:00:30;94126.56;;;22.43;44.43
28131;BME280;15418;42.634;23.374;2022-09-13T10:03:00;94082.13;;;21.81;47.81
28131;BME280;15418;42.634;23.374;2022-09-13T10:05:27;94091.63;;;21.67;46.66
28131;BME280;15418;42.634;23.374;2022-09-13T10:08:03;94124.63;;;22.12;45.88
28131;BME280;15418;42.634;23.374;2022-09-13T10:13:04;94117.56;;;21.50;52.34
28131;BME280;15418;42.634;23.374;2022-09-13T10:15:31;94098.25;;;21.50;53.00
28131;BME280;15418;42.634;23.374;2022-09-13T10:18:23;94108.91;;;21.64;50.48
28131;BME280;15418;42.634;23.374;2022-09-13T10:23:44;94112.53;;;21.84;51.19
28131;BME280;15418;42.634;23.374;2022-09-13T10:26:14;94093.16;;;21.20;53.36
28131;BME280;15418;42.634;23.374;2022-09-13T10:29:07;94089.28;;;21.37;51.24
28131;BME280;15418;42.634;23.374;2022-09-13T10:31:52;94093.53;;;21.35;52.47
28131;BME280;15418;42.634;23.374;2022-09-13T10:34:25;94110.41;;;21.33;52.77
28131;BME280;15418;42.634;23.374;2022-09-13T10:39:19;94106.06;;;21.61;51.73
28131;BME280;15418;42.634;23.374;2022-09-13T10:42:05;94108.91;;;21.96;50.07
28131;BME280;15418;42.634;23.374;2022-09-13T10:47:04;94100.31;;;21.37;48.68
28131;BME280;15418;42.634;23.374;2022-09-13T10:49:51;94093.28;;;21.40;48.77
28131;BME280;15418;42.634;23.374;2022-09-13T10:52:43;94093.88;;;21.33;51.13
28131;BME280;15418;42.634;23.374;2022-09-13T10:55:33;94081.78;;;21.22;50.51
28131;BME280;15418;42.634;23.374;2022-09-13T11:03:36;94058.94;;;20.77;55.85
28131;BME280;15418;42.634;23.374;2022-09-13T11:20:08;94087.00;;;21.72;51.32
28131;BME280;15418;42.634;23.374;2022-09-13T11:23:26;94085.94;;;21.60;50.06
28131;BME280;15418;42.634;23.374;2022-09-13T11:25:47;94071.34;;;21.76;49.52
28131;BME280;15418;42.634;23.374;2022-09-13T11:36:15;94068.19;;;21.45;47.52
28131;BME280;15418;42.634;23.374;2022-09-13T11:39:30;94061.47;;;21.91;47.54
28131;BME280;15418;42.634;23.374;2022-09-13T11:55:51;94054.41;;;21.93;44.38
28131;BME280;15418;42.634;23.374;2022-09-13T11:58:23;94048.91;;;21.93;45.59
28131;BME280;15418;42.634;23.374;2022-09-13T12:00:56;94049.63;;;21.26;45.79
28131;BME280;15418;42.634;23.374;2022-09-13T12:03:33;94049.94;;;22.05;47.12
28131;BME280;15418;42.634;23.374;2022-09-13T12:06:17;94049.94;;;22.05;43.06
28131;BME280;15418;42.634;23.374;2022-09-13T12:08:46;94036.22;;;22.08;43.76
28131;BME280;15418;42.634;23.374;2022-09-13T12:11:34;94036.94;;;22.21;44.41
28131;BME280;15418;42.634;23.374;2022-09-13T12:14:04;94048.56;;;22.30;45.70
28131;BME280;15418;42.634;23.374;2022-09-13T12:16:35;94030.72;;;22.44;44.31
28131;BME280;15418;42.634;23.374;2022-09-13T12:19:07;94033.13;;;22.45;43.77
28131;BME280;15418;42.634;23.374;2022-09-13T12:21:38;94043.94;;;22.35;43.82
28131;BME280;15418;42.634;23.374;2022-09-13T12:24:19;94048.59;;;22.50;43.14
28131;BME280;15418;42.634;23.374;2022-09-13T12:26:55;94051.31;;;22.30;43.71
28131;BME280;15418;42.634;23.374;2022-09-13T12:29:31;94057.34;;;22.36;45.48
28131;BME280;15418;42.634;23.374;2022-09-13T12:32:01;94053.41;;;22.53;44.85
28131;BME280;15418;42.634;23.374;2022-09-13T12:34:39;94038.63;;;22.45;43.46
28131;BME280;15418;42.634;23.374;2022-09-13T12:37:26;94052.59;;;22.17;44.98
28131;BME280;15418;42.634;23.374;2022-09-13T12:42:43;94052.38;;;22.42;42.65
28131;BME280;15418;42.634;23.374;2022-09-13T13:01:19;94037.09;;;22.28;44.09
28131;BME280;15418;42.634;23.374;2022-09-13T13:03:53;94039.69;;;21.69;44.83
28131;BME280;15418;42.634;23.374;2022-09-13T13:06:31;94046.03;;;22.06;46.30
28131;BME280;15418;42.634;23.374;2022-09-13T13:09:02;94045.28;;;21.73;45.26
28131;BME280;15418;42.634;23.374;2022-09-13T13:11:40;94025.88;;;21.85;45.93
28131;BME280;15418;42.634;23.374;2022-09-13T13:14:26;94039.91;;;22.12;46.62
28131;BME280;15418;42.634;23.374;2022-09-13T13:16:52;94039.28;;;22.03;45.96
28131;BME280;15418;42.634;23.374;2022-09-13T13:19:30;94022.84;;;21.91;43.99
28131;BME280;15418;42.634;23.374;2022-09-13T13:27:57;94044.72;;;21.99;46.19
28131;BME280;15418;42.634;23.374;2022-09-13T13:30:39;94039.81;;;22.09;46.71
28131;BME280;15418;42.634;23.374;2022-09-13T13:35:44;94030.06;;;21.79;47.40
28131;BME280;15418;42.634;23.374;2022-09-13T13:38:19;94044.63;;;21.96;48.22
28131;BME280;15418;42.634;23.374;2022-09-13T13:41:06;94044.59;;;22.12;48.72
28131;BME280;15418;42.634;23.374;2022-09-13T13:43:33;93994.94;;;21.60;45.86
28131;BME280;15418;42.634;23.374;2022-09-13T13:48:41;94050.75;;;22.05;45.49
28131;BME280;15418;42.634;23.374;2022-09-13T13:53:45;94056.03;;;21.94;48.65
28131;BME280;15418;42.634;23.374;2022-09-13T14:01:38;94060.91;;;21.85;49.95
28131;BME280;15418;42.634;23.374;2022-09-13T14:04:22;94051.66;;;21.93;51.51
28131;BME280;15418;42.634;23.374;2022-09-13T14:09:55;94065.75;;;21.56;47.02
28131;BME280;15418;42.634;23.374;2022-09-13T14:12:32;94060.31;;;21.60;49.48
28131;BME280;15418;42.634;23.374;2022-09-13T14:20:27;94058.88;;;21.50;48.80
28131;BME280;15418;42.634;23.374;2022-09-13T14:23:15;94073.09;;;21.36;47.71
28131;BME280;15418;42.634;23.374;2022-09-13T14:25:43;94047.09;;;21.21;48.14
28131;BME280;15418;42.634;23.374;2022-09-13T14:28:14;94082.06;;;21.33;48.75
28131;BME280;15418;42.634;23.374;2022-09-13T14:30:43;94072.38;;;21.39;47.78
28131;BME280;15418;42.634;23.374;2022-09-13T14:33:20;94061.41;;;21.11;48.38
28131;BME280;15418;42.634;23.374;2022-09-13T14:35:56;94057.75;;;21.07;50.29
28131;BME280;15418;42.634;23.374;2022-09-13T14:38:25;94072.19;;;21.32;50.75
28131;BME280;15418;42.634;23.374;2022-09-13T14:40:58;94067.75;;;21.43;52.34
28131;BME280;15418;42.634;23.374;2022-09-13T14:43:26;94065.22;;;21.06;55.43
28131;BME280;15418;42.634;23.374;2022-09-13T14:46:18;94067.00;;;21.14;52.57
28131;BME280;15418;42.634;23.374;2022-09-13T14:48:47;94071.91;;;21.21;50.53
28131;BME280;15418;42.634;23.374;2022-09-13T14:51:20;94082.09;;;21.04;49.79
28131;BME280;15418;42.634;23.374;2022-09-13T14:53:51;94037.22;;;20.76;51.47
28131;BME280;15418;42.634;23.374;2022-09-13T14:56:32;94076.38;;;20.97;51.51
28131;BME280;15418;42.634;23.374;2022-09-13T14:59:03;94071.44;;;20.75;50.36
28131;BME280;15418;42.634;23.374;2022-09-13T15:01:33;94024.50;;;20.43;50.42
28131;BME280;15418;42.634;23.374;2022-09-13T15:04:00;94068.88;;;20.69;51.34
28131;BME280;15418;42.634;23.374;2022-09-13T15:06:29;94080.59;;;20.79;50.36
28131;BME280;15418;42.634;23.374;2022-09-13T15:11:40;94081.56;;;20.58;49.46
28131;BME280;15418;42.634;23.374;2022-09-13T15:16:47;94101.56;;;20.43;51.71
28131;BME280;15418;42.634;23.374;2022-09-13T15:19:36;94082.00;;;20.60;51.56
28131;BME280;15418;42.634;23.374;2022-09-13T15:24:42;94060.53;;;20.25;52.96
28131;BME280;15418;42.634;23.374;2022-09-13T15:27:19;94079.31;;;20.48;53.72
28131;BME280;15418;42.634;23.374;2022-09-13T15:29:49;94070.63;;;20.33;52.32
28131;BME280;15418;42.634;23.374;2022-09-13T15:32:48;94079.13;;;20.28;53.42
28131;BME280;15418;42.634;23.374;2022-09-13T15:35:27;94052.91;;;20.06;53.36
28131;BME280;15418;42.634;23.374;2022-09-13T15:38:15;94061.81;;;20.15;55.08
28131;BME280;15418;42.634;23.374;2022-09-13T15:40:44;94069.50;;;20.22;56.11
28131;BME280;15418;42.634;23.374;2022-09-13T15:43:12;94087.50;;;20.19;54.39
28131;BME280;15418;42.634;23.374;2022-09-13T15:45:38;94035.59;;;20.05;55.14
28131;BME280;15418;42.634;23.374;2022-09-13T15:48:04;94053.94;;;19.89;55.55
28131;BME280;15418;42.634;23.374;2022-09-13T15:50:32;94083.06;;;19.90;55.08